createdAt,value
2018-05-12T00:00:41.008Z,17.08
2018-05-12T00:03:07.770Z,16.50
2018-05-12T00:05:34.400Z,18.75
2018-05-12T00:08:02.167Z,17.73
2018-05-12T00:10:28.802Z,17.15
2018-05-12T00:12:55.436Z,17.23
2018-05-12T00:15:22.083Z,17.92
2018-05-12T00:17:48.712Z,18.30
2018-05-12T00:20:15.331Z,19.87
2018-05-12T00:22:41.970Z,18.87
2018-05-12T00:25:08.600Z,20.00
2018-05-12T00:27:35.235Z,17.73
2018-05-12T00:30:01.892Z,19.25
2018-05-12T00:32:28.518Z,19.42
2018-05-12T00:34:55.158Z,21.35
2018-05-12T00:37:21.783Z,23.70
2018-05-12T00:39:48.402Z,21.37
2018-05-12T00:42:15.042Z,21.70
2018-05-12T00:44:41.732Z,21.70
2018-05-12T00:47:08.471Z,24.15
2018-05-12T00:49:35.119Z,22.75
2018-05-12T00:52:01.746Z,24.92
2018-05-12T00:54:28.380Z,25.10
2018-05-12T00:56:55.128Z,26.80
2018-05-12T00:59:21.875Z,26.55
2018-05-12T01:01:48.493Z,26.48
2018-05-12T01:04:15.252Z,24.98
2018-05-12T01:06:41.882Z,27.85
2018-05-12T01:09:08.526Z,24.00
2018-05-12T01:11:35.171Z,27.48
2018-05-12T01:14:01.907Z,26.45
2018-05-12T01:16:28.553Z,26.42
2018-05-12T01:18:55.208Z,27.73
2018-05-12T01:21:21.836Z,28.75
2018-05-12T01:23:48.468Z,28.70
2018-05-12T01:26:15.112Z,26.73
2018-05-12T01:28:41.736Z,28.27
2018-05-12T01:31:08.376Z,27.80
2018-05-12T01:33:35.019Z,28.55
2018-05-12T01:36:01.667Z,29.45
2018-05-12T01:38:28.307Z,28.70
2018-05-12T01:40:54.950Z,28.02
2018-05-12T01:43:21.575Z,30.40
2018-05-12T01:45:48.204Z,27.95
2018-05-12T01:48:14.856Z,26.65
2018-05-12T01:50:41.491Z,27.25
2018-05-12T01:53:08.115Z,25.77
2018-05-12T01:55:34.763Z,23.12
2018-05-12T01:58:01.411Z,24.40
2018-05-12T02:00:28.051Z,24.45
2018-05-12T02:02:54.689Z,24.90
2018-05-12T02:05:21.326Z,25.40
2018-05-12T02:07:47.967Z,25.05
2018-05-12T02:10:14.610Z,24.77
2018-05-12T02:12:41.357Z,26.20
2018-05-12T02:15:08.094Z,24.58
2018-05-12T02:17:34.730Z,22.67
2018-05-12T02:20:01.364Z,23.75
2018-05-12T02:22:27.991Z,22.67
2018-05-12T02:24:54.632Z,22.20
2018-05-12T02:27:21.259Z,20.62
2018-05-12T02:29:47.927Z,20.37
2018-05-12T02:32:14.566Z,21.87
2018-05-12T02:34:41.316Z,20.17
2018-05-12T02:37:07.941Z,18.17
2018-05-12T02:39:34.612Z,19.62
2018-05-12T02:42:01.248Z,18.87
2018-05-12T02:44:27.963Z,19.20
2018-05-12T02:46:54.707Z,20.73
2018-05-12T02:49:21.344Z,19.85
2018-05-12T02:51:47.986Z,20.02
2018-05-12T02:54:14.728Z,19.10
2018-05-12T02:56:41.462Z,20.12
2018-05-12T02:59:08.134Z,22.10
2018-05-12T03:01:34.790Z,22.73
2018-05-12T03:04:01.497Z,20.15
2018-05-12T03:06:28.232Z,19.20
2018-05-12T03:08:54.972Z,21.58
2018-05-12T03:11:21.706Z,22.92
2018-05-12T03:13:48.330Z,22.05
2018-05-12T03:16:14.987Z,20.77
2018-05-12T03:18:41.698Z,20.73
2018-05-12T03:21:08.376Z,19.42
2018-05-12T03:23:35.029Z,19.87
2018-05-12T03:26:01.760Z,21.77
2018-05-12T03:28:28.395Z,21.02
2018-05-12T03:30:55.043Z,22.42
2018-05-12T03:33:21.671Z,21.65
2018-05-12T03:35:48.419Z,20.73
2018-05-12T03:38:15.146Z,19.70
2018-05-12T03:40:41.779Z,19.45
2018-05-12T03:43:08.415Z,20.95
2018-05-12T03:45:35.095Z,20.58
2018-05-12T03:48:01.723Z,20.37
2018-05-12T03:50:28.452Z,20.12
2018-05-12T03:52:55.101Z,20.25
2018-05-12T03:55:21.727Z,19.52
2018-05-12T03:57:48.363Z,20.17
2018-05-12T04:00:15.007Z,19.80
2018-05-12T04:02:41.648Z,21.20
2018-05-12T04:05:14.110Z,20.08
2018-05-12T04:07:46.703Z,18.75
2018-05-12T04:10:32.073Z,19.17
2018-05-12T04:12:58.703Z,18.67
2018-05-12T04:15:25.330Z,19.83
2018-05-12T04:17:51.975Z,20.35
2018-05-12T04:20:18.608Z,21.70
2018-05-12T04:22:45.238Z,20.75
2018-05-12T04:25:11.883Z,20.40
2018-05-12T04:27:38.521Z,18.52
2018-05-12T04:30:05.200Z,18.95
2018-05-12T04:32:31.935Z,20.27
2018-05-12T04:34:58.564Z,21.08
2018-05-12T04:37:25.213Z,24.00
2018-05-12T04:39:51.959Z,20.55
2018-05-12T04:42:18.582Z,20.30
2018-05-12T04:44:45.230Z,22.60
2018-05-12T04:47:11.870Z,23.35
2018-05-12T04:49:38.490Z,21.85
2018-05-12T04:52:05.119Z,22.55
2018-05-12T04:54:31.767Z,23.75
2018-05-12T04:56:58.422Z,24.52
2018-05-12T04:59:25.050Z,28.12
2018-05-12T05:01:51.807Z,24.37
2018-05-12T05:04:18.426Z,26.37
2018-05-12T05:06:45.099Z,25.65
2018-05-12T05:09:11.742Z,25.35
2018-05-12T05:11:38.467Z,27.00
2018-05-12T05:14:05.261Z,26.45
2018-05-12T05:16:31.891Z,26.65
2018-05-12T05:18:58.591Z,28.60
2018-05-12T05:21:25.220Z,29.20
2018-05-12T05:23:51.998Z,28.10
2018-05-12T05:26:18.711Z,29.52
2018-05-12T05:28:45.450Z,29.63
2018-05-12T05:31:12.195Z,27.33
2018-05-12T05:33:38.823Z,31.60
2018-05-12T05:36:05.448Z,28.75
2018-05-12T05:38:32.120Z,27.58
2018-05-12T05:40:58.742Z,30.42
2018-05-12T05:43:25.363Z,31.05
2018-05-12T05:45:52.011Z,29.60
2018-05-12T05:48:18.634Z,29.52
2018-05-12T05:50:45.255Z,27.73
2018-05-12T05:53:11.912Z,30.55
2018-05-12T05:55:38.590Z,30.62
2018-05-12T05:58:05.219Z,29.25
2018-05-12T06:00:31.958Z,31.02
2018-05-12T06:02:58.605Z,30.60
2018-05-12T06:05:25.221Z,29.25
2018-05-12T06:07:51.863Z,30.52
2018-05-12T06:10:18.496Z,30.00
2018-05-12T06:12:45.121Z,30.98
2018-05-12T06:15:11.796Z,32.70
2018-05-12T06:17:38.442Z,30.80
2018-05-12T06:20:05.183Z,31.65
2018-05-12T06:22:31.832Z,31.27
2018-05-12T06:24:58.464Z,28.87
2018-05-12T06:27:25.092Z,31.48
2018-05-12T06:29:51.744Z,32.58
2018-05-12T06:32:18.375Z,29.80
2018-05-12T06:34:44.995Z,27.58
2018-05-12T06:37:11.652Z,32.95
2018-05-12T06:39:38.278Z,31.98
2018-05-12T06:42:04.937Z,31.08
2018-05-12T06:44:31.592Z,31.30
2018-05-12T06:46:58.227Z,31.77
2018-05-12T06:49:24.965Z,32.55
2018-05-12T06:51:51.695Z,30.83
2018-05-12T06:54:18.428Z,31.75
2018-05-12T06:56:45.070Z,31.08
2018-05-12T06:59:11.723Z,32.05
2018-05-12T07:01:38.359Z,30.75
2018-05-12T07:04:04.986Z,30.42
2018-05-12T07:06:31.635Z,30.73
2018-05-12T07:08:58.258Z,28.10
2018-05-12T07:11:24.891Z,31.37
2018-05-12T07:13:51.539Z,26.90
2018-05-12T07:16:18.167Z,29.23
2018-05-12T07:18:44.808Z,30.80
2018-05-12T07:21:11.446Z,30.20
2018-05-12T07:23:38.075Z,26.05
2018-05-12T07:26:04.744Z,24.42
2018-05-12T07:28:31.403Z,31.45
2018-05-12T07:30:58.121Z,28.23
2018-05-12T07:33:24.747Z,28.30
2018-05-12T07:35:51.400Z,27.10
2018-05-12T07:38:18.035Z,29.17
2018-05-12T07:40:44.668Z,28.62
2018-05-12T07:43:11.316Z,27.87
2018-05-12T07:45:38.012Z,27.92
2018-05-12T07:48:04.588Z,26.98
2018-05-12T07:50:31.264Z,26.95
2018-05-12T07:52:57.983Z,25.55
2018-05-12T07:55:24.621Z,29.02
2018-05-12T07:57:51.254Z,28.02
2018-05-12T08:00:17.877Z,24.58
2018-05-12T08:02:44.536Z,24.80
2018-05-12T08:05:11.291Z,24.92
2018-05-12T08:07:38.027Z,26.67
2018-05-12T08:10:04.662Z,25.12
2018-05-12T08:12:31.307Z,26.42
2018-05-12T08:14:57.944Z,26.15
2018-05-12T08:17:24.570Z,24.02
2018-05-12T08:19:51.209Z,25.37
2018-05-12T08:22:17.834Z,24.65
2018-05-12T08:24:44.505Z,26.15
2018-05-12T08:27:11.143Z,25.20
2018-05-12T08:29:37.770Z,23.42
2018-05-12T08:32:04.502Z,23.08
2018-05-12T08:34:31.138Z,21.85
2018-05-12T08:36:57.782Z,23.90
2018-05-12T08:39:24.413Z,19.25
2018-05-12T08:41:51.161Z,24.48
2018-05-12T08:44:17.810Z,22.60
2018-05-12T08:46:44.543Z,21.17
2018-05-12T08:49:11.192Z,22.05
2018-05-12T08:51:37.819Z,23.48
2018-05-12T08:54:04.472Z,20.70
2018-05-12T08:56:31.483Z,19.00
2018-05-12T08:58:58.123Z,21.50
2018-05-12T09:01:24.750Z,20.10
2018-05-12T09:03:51.546Z,19.87
2018-05-12T09:06:18.174Z,20.75
2018-05-12T09:08:44.819Z,20.23
2018-05-12T09:11:11.464Z,18.50
2018-05-12T09:13:38.122Z,19.02
2018-05-12T09:16:04.759Z,19.35
2018-05-12T09:18:31.499Z,19.60
2018-05-12T09:20:58.214Z,20.17
2018-05-12T09:23:24.839Z,19.27
2018-05-12T09:25:51.483Z,21.20
2018-05-12T09:28:18.106Z,21.12
2018-05-12T09:30:44.736Z,21.17
2018-05-12T09:33:11.387Z,19.55
2018-05-12T09:35:38.051Z,19.87
2018-05-12T09:38:04.675Z,19.80
2018-05-12T09:40:31.326Z,18.67
2018-05-12T09:42:57.947Z,17.60
2018-05-12T09:45:24.579Z,25.95
2018-05-12T09:47:51.229Z,20.95
2018-05-12T09:50:18.696Z,20.80
2018-05-12T09:52:45.347Z,18.25
2018-05-12T09:55:11.992Z,18.00
2018-05-12T09:57:38.621Z,14.98
2018-05-12T10:00:05.368Z,17.87
2018-05-12T10:02:32.013Z,16.73
2018-05-12T10:04:58.638Z,16.95
2018-05-12T10:07:25.288Z,16.42
2018-05-12T10:09:52.048Z,17.55
2018-05-12T10:12:18.764Z,16.52
2018-05-12T10:14:45.382Z,17.75
2018-05-12T10:17:12.031Z,16.67
2018-05-12T10:19:38.657Z,15.30
2018-05-12T10:22:05.318Z,15.63
2018-05-12T10:24:31.976Z,16.37
2018-05-12T10:26:58.610Z,18.00
2018-05-12T10:29:25.239Z,18.23
2018-05-12T10:31:51.883Z,17.42
2018-05-12T10:34:18.525Z,15.95
2018-05-12T10:36:45.259Z,17.25
2018-05-12T10:39:11.903Z,14.45
2018-05-12T10:41:38.539Z,11.80
2018-05-12T10:44:05.178Z,20.25
2018-05-12T10:46:31.940Z,13.68
2018-05-12T10:48:59.025Z,12.05
2018-05-12T10:51:25.873Z,12.40
2018-05-12T10:53:53.152Z,20.33
2018-05-12T10:56:19.902Z,15.40
2018-05-12T10:58:46.535Z,10.70
2018-05-12T11:01:13.181Z,11.17
2018-05-12T11:03:39.823Z,12.27
2018-05-12T11:06:06.563Z,12.27
2018-05-12T11:08:33.221Z,10.23
2018-05-12T11:10:59.951Z,9.47
2018-05-12T11:13:26.711Z,12.67
2018-05-12T11:15:53.434Z,16.87
2018-05-12T11:18:19.988Z,12.50
2018-05-12T11:20:46.630Z,10.25
2018-05-12T11:23:13.273Z,11.37
2018-05-12T11:25:39.987Z,11.53
2018-05-12T11:28:06.719Z,9.93
2018-05-12T11:30:33.368Z,10.73
2018-05-12T11:32:59.985Z,9.23
2018-05-12T11:35:26.602Z,9.37
2018-05-12T11:37:53.245Z,8.90
2018-05-12T11:40:19.924Z,9.03
2018-05-12T11:42:46.668Z,9.20
2018-05-12T11:45:13.513Z,10.07
2018-05-12T11:47:40.252Z,9.40
2018-05-12T11:50:06.928Z,8.33
2018-05-12T11:52:33.521Z,9.17
2018-05-12T11:55:00.167Z,8.27
2018-05-12T11:57:27.443Z,8.70
2018-05-12T11:59:55.004Z,8.70
2018-05-12T12:02:23.514Z,6.50
2018-05-12T12:04:50.790Z,7.07
2018-05-12T12:07:18.776Z,8.40
2018-05-12T12:09:45.527Z,5.67
2018-05-12T12:12:12.172Z,5.20
2018-05-12T12:14:39.663Z,5.33
2018-05-12T12:17:06.372Z,4.77
2018-05-12T12:19:32.996Z,5.70
2018-05-12T12:21:59.748Z,5.00
2018-05-12T12:24:26.365Z,4.30
2018-05-12T12:26:52.977Z,4.57
2018-05-12T12:29:19.659Z,5.43
2018-05-12T12:31:46.367Z,4.50
2018-05-12T12:34:12.940Z,4.77
2018-05-12T12:36:39.679Z,3.70
2018-05-12T12:39:06.300Z,3.93
2018-05-12T12:41:32.923Z,3.60
2018-05-12T12:43:59.558Z,3.60
2018-05-12T12:46:26.239Z,3.77
2018-05-12T12:48:52.874Z,4.70
2018-05-12T12:51:19.604Z,3.80
2018-05-12T12:53:46.231Z,4.30
2018-05-12T12:56:12.865Z,3.80
2018-05-12T12:58:39.516Z,5.10
2018-05-12T13:01:06.131Z,4.10
2018-05-12T13:03:34.247Z,3.93
2018-05-12T13:06:00.941Z,4.13
2018-05-12T13:08:27.640Z,3.83
2018-05-12T13:10:54.254Z,4.40
2018-05-12T13:13:20.886Z,4.93
2018-05-12T13:15:47.547Z,5.83
2018-05-12T13:18:14.181Z,4.60
2018-05-12T13:20:40.819Z,4.47
2018-05-12T13:23:07.430Z,4.70
2018-05-12T13:25:34.103Z,4.70
2018-05-12T13:28:01.856Z,4.60
2018-05-12T13:30:28.553Z,5.20
2018-05-12T13:32:55.178Z,5.13
2018-05-12T13:35:21.812Z,4.23
2018-05-12T13:37:48.434Z,3.77
2018-05-12T13:40:15.167Z,4.10
2018-05-12T13:42:41.934Z,4.00
2018-05-12T13:45:09.609Z,3.90
2018-05-12T13:47:36.695Z,3.77
2018-05-12T13:50:03.330Z,3.90
2018-05-12T13:52:29.995Z,5.43
2018-05-12T13:54:56.615Z,4.10
2018-05-12T13:57:23.279Z,3.70
2018-05-12T13:59:49.912Z,3.83
2018-05-12T14:02:16.541Z,4.70
2018-05-12T14:04:43.201Z,4.07
2018-05-12T14:07:09.832Z,3.93
2018-05-12T14:09:36.451Z,3.47
2018-05-12T14:12:03.112Z,3.80
2018-05-12T14:14:29.734Z,3.70
2018-05-12T14:16:56.367Z,3.97
2018-05-12T14:19:23.027Z,3.53
2018-05-12T14:21:49.667Z,4.10
2018-05-12T14:24:16.284Z,4.80
2018-05-12T14:26:42.954Z,4.63
2018-05-12T14:29:09.587Z,5.10
2018-05-12T14:31:36.222Z,4.27
2018-05-12T14:34:02.860Z,4.50
2018-05-12T14:36:29.495Z,5.10
2018-05-12T14:38:56.143Z,5.80
2018-05-12T14:41:22.779Z,5.03
2018-05-12T14:43:49.399Z,5.90
2018-05-12T14:46:16.058Z,5.20
2018-05-12T14:48:42.695Z,4.43
2018-05-12T14:51:09.319Z,5.30
2018-05-12T14:53:35.939Z,4.63
2018-05-12T14:56:02.619Z,5.10
2018-05-12T14:58:29.262Z,4.60
2018-05-12T15:00:55.882Z,4.70
2018-05-12T15:03:22.532Z,5.83
2018-05-12T15:05:49.156Z,4.33
2018-05-12T15:08:15.796Z,5.17
2018-05-12T15:10:42.451Z,4.87
2018-05-12T15:13:09.087Z,4.40
2018-05-12T15:15:35.715Z,4.03
2018-05-12T15:18:02.466Z,5.30
2018-05-12T15:20:29.111Z,4.40
2018-05-12T15:22:55.722Z,4.67
2018-05-12T15:25:22.367Z,4.13
2018-05-12T15:27:48.991Z,4.37
2018-05-12T15:30:15.663Z,4.57
2018-05-12T15:32:42.295Z,3.80
2018-05-12T15:35:08.920Z,4.20
2018-05-12T15:37:35.534Z,3.60
2018-05-12T15:40:02.216Z,4.33
2018-05-12T15:42:28.831Z,4.70
2018-05-12T15:44:55.458Z,3.97
2018-05-12T15:47:22.099Z,4.30
2018-05-12T15:49:48.743Z,3.83
2018-05-12T15:52:15.354Z,4.80
2018-05-12T15:54:42.060Z,4.10
2018-05-12T15:57:08.684Z,4.50
2018-05-12T15:59:35.340Z,4.17
2018-05-12T16:02:01.975Z,4.80
2018-05-12T16:04:28.590Z,3.87
2018-05-12T16:06:55.202Z,3.80
2018-05-12T16:09:21.887Z,3.97
2018-05-12T16:11:48.503Z,4.13
2018-05-12T16:14:15.171Z,4.80
2018-05-12T16:16:41.811Z,4.57
2018-05-12T16:19:08.447Z,4.27
2018-05-12T16:21:35.747Z,5.13
2018-05-12T16:24:02.449Z,4.93
2018-05-12T16:26:29.083Z,5.33
2018-05-12T16:28:55.718Z,5.77
2018-05-12T16:31:22.444Z,5.10
2018-05-12T16:33:48.986Z,5.03
2018-05-12T16:36:15.611Z,7.20
2018-05-12T16:38:42.242Z,6.60
2018-05-12T16:41:08.868Z,6.23
2018-05-12T16:43:35.550Z,5.57
2018-05-12T16:46:02.183Z,6.07
2018-05-12T16:48:28.808Z,6.10
2018-05-12T16:50:55.548Z,5.17
2018-05-12T16:53:22.127Z,5.33
2018-05-12T16:55:48.747Z,5.33
2018-05-12T16:58:15.391Z,4.47
2018-05-12T17:00:42.126Z,4.30
2018-05-12T17:03:08.748Z,4.67
2018-05-12T17:05:35.411Z,4.37
2018-05-12T17:08:02.152Z,4.93
2018-05-12T17:10:28.777Z,4.60
2018-05-12T17:12:55.422Z,4.50
2018-05-12T17:15:22.157Z,5.10
2018-05-12T17:17:48.783Z,5.50
2018-05-12T17:20:15.403Z,5.77
2018-05-12T17:22:42.082Z,6.00
2018-05-12T17:25:08.699Z,5.10
2018-05-12T17:27:35.362Z,4.78
2018-05-12T17:30:02.101Z,5.70
2018-05-12T17:32:28.742Z,5.55
2018-05-12T17:34:55.371Z,5.32
2018-05-12T17:37:22.019Z,5.22
2018-05-12T17:39:48.658Z,5.43
2018-05-12T17:42:15.298Z,6.07
2018-05-12T17:44:41.935Z,6.30
2018-05-12T17:47:08.565Z,5.93
2018-05-12T17:49:35.214Z,5.93
2018-05-12T17:52:01.847Z,5.78
2018-05-12T17:54:28.463Z,6.28
2018-05-12T17:56:55.135Z,6.47
2018-05-12T17:59:21.788Z,6.30
2018-05-12T18:01:48.511Z,6.25
2018-05-12T18:04:15.162Z,6.72
2018-05-12T18:06:41.808Z,8.50
2018-05-12T18:09:08.432Z,8.60
2018-05-12T18:11:35.116Z,8.00
2018-05-12T18:14:01.811Z,8.70
2018-05-12T18:16:28.436Z,8.40
2018-05-12T18:18:55.064Z,8.73
2018-05-12T18:21:21.731Z,8.98
2018-05-12T18:23:48.351Z,9.13
2018-05-12T18:26:15.006Z,9.55
2018-05-12T18:28:41.656Z,9.98
2018-05-12T18:31:08.309Z,10.30
2018-05-12T18:33:34.940Z,9.95
2018-05-12T18:36:01.588Z,10.30
2018-05-12T18:38:28.374Z,9.80
2018-05-12T18:40:54.944Z,10.65
2018-05-12T18:43:21.594Z,10.60
2018-05-12T18:45:48.219Z,10.20
2018-05-12T18:48:14.851Z,11.95
2018-05-12T18:50:41.530Z,12.43
2018-05-12T18:53:08.137Z,10.98
2018-05-12T18:55:34.783Z,11.18
2018-05-12T18:58:01.425Z,10.70
2018-05-12T19:00:28.162Z,10.80
2018-05-12T19:02:54.903Z,10.20
2018-05-12T19:05:21.543Z,10.63
2018-05-12T19:07:48.283Z,11.30
2018-05-12T19:10:14.902Z,13.65
2018-05-12T19:12:41.567Z,12.60
2018-05-12T19:15:08.189Z,10.30
2018-05-12T19:17:34.841Z,10.55
2018-05-12T19:20:01.483Z,10.38
2018-05-12T19:22:28.128Z,11.40
2018-05-12T19:24:54.859Z,9.50
2018-05-12T19:27:21.599Z,8.85
2018-05-12T19:29:48.214Z,8.80
2018-05-12T19:32:14.875Z,9.32
2018-05-12T19:34:41.515Z,8.57
2018-05-12T19:37:08.239Z,8.50
2018-05-12T19:39:34.904Z,8.00
2018-05-12T19:42:01.535Z,7.65
2018-05-12T19:44:28.166Z,7.30
2018-05-12T19:46:54.795Z,8.18
2018-05-12T19:49:21.429Z,7.32
2018-05-12T19:51:48.056Z,6.60
2018-05-12T19:54:15.650Z,7.53
2018-05-12T19:56:42.390Z,7.70
2018-05-12T19:59:09.030Z,7.75
2018-05-12T20:01:35.675Z,8.30
2018-05-12T20:04:02.307Z,7.43
2018-05-12T20:06:28.931Z,6.90
2018-05-12T20:08:55.591Z,8.52
2018-05-12T20:11:22.227Z,8.65
2018-05-12T20:13:48.847Z,8.25
2018-05-12T20:16:15.475Z,9.13
2018-05-12T20:18:42.142Z,8.55
2018-05-12T20:21:08.763Z,10.23
2018-05-12T20:23:35.418Z,9.15
2018-05-12T20:26:02.162Z,8.90
2018-05-12T20:28:28.809Z,8.27
2018-05-12T20:30:55.438Z,8.52
2018-05-12T20:33:22.080Z,8.55
2018-05-12T20:35:48.702Z,8.57
2018-05-12T20:38:15.327Z,8.35
2018-05-12T20:40:41.973Z,7.75
2018-05-12T20:43:08.599Z,9.38
2018-05-12T20:45:35.278Z,9.52
2018-05-12T20:48:01.918Z,9.20
2018-05-12T20:50:28.547Z,9.13
2018-05-12T20:52:55.196Z,8.55
2018-05-12T20:55:21.831Z,9.70
2018-05-12T20:57:48.453Z,10.73
2018-05-12T21:00:15.076Z,8.88
2018-05-12T21:02:41.747Z,9.45
2018-05-12T21:05:08.383Z,10.40
2018-05-12T21:07:35.007Z,10.95
2018-05-12T21:10:01.672Z,10.13
2018-05-12T21:12:28.290Z,9.68
2018-05-12T21:14:54.972Z,9.85
2018-05-12T21:17:21.610Z,10.40
2018-05-12T21:19:48.326Z,9.60
2018-05-12T21:22:14.973Z,10.45
2018-05-12T21:24:41.615Z,10.85
2018-05-12T21:27:08.234Z,9.48
2018-05-12T21:29:34.864Z,10.80
2018-05-12T21:32:01.507Z,9.60
2018-05-12T21:34:28.168Z,9.85
2018-05-12T21:36:54.792Z,9.57
2018-05-12T21:39:21.434Z,10.48
2018-05-12T21:41:48.060Z,11.50
2018-05-12T21:44:14.691Z,10.25
2018-05-12T21:46:41.335Z,10.27
2018-05-12T21:49:07.968Z,10.35
2018-05-12T21:51:34.598Z,10.25
2018-05-12T21:54:01.231Z,9.77
2018-05-12T21:56:27.916Z,9.77
2018-05-12T21:58:54.623Z,10.48
2018-05-12T22:01:21.295Z,9.85
2018-05-12T22:03:47.928Z,10.60
2018-05-12T22:06:14.580Z,10.32
2018-05-12T22:08:41.313Z,10.73
2018-05-12T22:11:07.951Z,9.90
2018-05-12T22:13:34.573Z,10.50
2018-05-12T22:16:01.211Z,10.38
2018-05-12T22:18:27.912Z,11.05
2018-05-12T22:20:54.515Z,11.05
2018-05-12T22:23:21.164Z,11.98
2018-05-12T22:25:47.792Z,10.88
2018-05-12T22:28:14.419Z,11.30
2018-05-12T22:30:41.167Z,11.52
2018-05-12T22:33:07.807Z,10.75
2018-05-12T22:35:34.435Z,10.98
2018-05-12T22:38:01.188Z,11.98
2018-05-12T22:40:31.730Z,12.82
2018-05-12T22:42:58.455Z,10.60
2018-05-12T22:45:25.099Z,12.65
2018-05-12T22:47:51.732Z,11.60
2018-05-12T22:50:18.378Z,13.20
2018-05-12T22:52:45.125Z,11.80
2018-05-12T22:55:11.863Z,13.05
2018-05-12T22:57:38.609Z,12.77
2018-05-12T23:00:05.347Z,11.50
2018-05-12T23:02:31.970Z,11.65
2018-05-12T23:04:58.607Z,12.90
2018-05-12T23:07:25.272Z,12.25
2018-05-12T23:09:51.909Z,11.73
2018-05-12T23:12:18.553Z,12.63
2018-05-12T23:14:45.204Z,12.93
2018-05-12T23:17:11.830Z,13.45
2018-05-12T23:19:38.458Z,13.07
2018-05-12T23:22:05.104Z,13.30
2018-05-12T23:24:31.835Z,12.55
2018-05-12T23:26:58.570Z,12.85
2018-05-12T23:29:25.211Z,12.57
2018-05-12T23:31:51.863Z,12.60
2018-05-12T23:34:18.599Z,13.82
2018-05-12T23:36:45.339Z,13.98
2018-05-12T23:39:12.074Z,13.13
2018-05-12T23:41:38.702Z,14.98
2018-05-12T23:44:05.347Z,13.80
2018-05-12T23:46:31.974Z,13.43
2018-05-12T23:48:58.603Z,13.48
2018-05-12T23:51:25.383Z,14.18
2018-05-12T23:53:52.015Z,14.00
2018-05-12T23:56:18.759Z,14.50
2018-05-12T23:58:45.499Z,14.75
